createdAt,value
2017-12-30T00:02:09.120Z,3.70
2017-12-30T00:04:37.438Z,5.50
2017-12-30T00:07:06.574Z,4.57
2017-12-30T00:09:34.981Z,6.17
2017-12-30T00:12:03.291Z,5.10
2017-12-30T00:14:32.402Z,6.37
2017-12-30T00:17:00.783Z,4.93
2017-12-30T00:19:29.124Z,5.10
2017-12-30T00:21:57.495Z,4.97
2017-12-30T00:24:25.891Z,4.97
2017-12-30T00:26:54.274Z,6.90
2017-12-30T00:29:23.382Z,6.33
2017-12-30T00:31:51.733Z,5.50
2017-12-30T00:34:20.218Z,5.53
2017-12-30T00:36:49.403Z,6.57
2017-12-30T00:39:17.779Z,6.37
2017-12-30T00:41:46.125Z,6.90
2017-12-30T00:44:14.527Z,8.23
2017-12-30T00:46:43.261Z,7.17
2017-12-30T00:49:12.361Z,6.20
2017-12-30T00:51:41.451Z,6.30
2017-12-30T00:54:10.596Z,6.83
2017-12-30T00:56:38.928Z,8.07
2017-12-30T00:59:08.039Z,6.60
2017-12-30T01:01:36.362Z,6.90
2017-12-30T01:04:04.736Z,6.00
2017-12-30T01:06:33.057Z,8.07
2017-12-30T01:09:02.164Z,6.50
2017-12-30T01:11:31.304Z,6.77
2017-12-30T01:13:59.685Z,7.67
2017-12-30T01:16:28.042Z,7.97
2017-12-30T01:18:56.393Z,8.67
2017-12-30T01:21:25.486Z,9.40
2017-12-30T01:23:54.724Z,9.87
2017-12-30T01:26:23.106Z,10.63
2017-12-30T01:28:51.440Z,8.10
2017-12-30T01:31:19.775Z,7.97
2017-12-30T01:33:48.108Z,8.50
2017-12-30T01:36:17.216Z,9.40
2017-12-30T01:38:45.553Z,12.10
2017-12-30T01:41:13.933Z,12.57
2017-12-30T01:43:42.273Z,10.43
2017-12-30T01:46:10.664Z,13.10
2017-12-30T01:48:50.943Z,11.93
2017-12-30T01:51:19.287Z,12.33
2017-12-30T01:53:47.630Z,13.60
2017-12-30T01:56:16.741Z,11.07
2017-12-30T01:58:45.094Z,14.17
2017-12-30T02:01:14.204Z,11.77
2017-12-30T02:03:42.576Z,11.40
2017-12-30T02:06:11.683Z,10.83
2017-12-30T02:08:40.038Z,14.10
2017-12-30T02:11:08.403Z,15.10
2017-12-30T02:13:36.828Z,11.47
2017-12-30T02:16:05.171Z,13.30
2017-12-30T02:18:33.570Z,13.77
2017-12-30T02:21:02.717Z,14.60
2017-12-30T02:23:31.076Z,16.17
2017-12-30T02:25:59.440Z,16.17
2017-12-30T02:28:27.834Z,12.53
2017-12-30T02:30:56.197Z,16.17
2017-12-30T02:33:25.386Z,17.53
2017-12-30T02:35:54.617Z,16.53
2017-12-30T02:38:23.068Z,14.60
2017-12-30T02:40:52.153Z,16.87
2017-12-30T02:43:21.263Z,18.60
2017-12-30T02:45:49.605Z,16.97
2017-12-30T02:48:17.955Z,16.57
2017-12-30T02:50:46.396Z,15.13
2017-12-30T02:53:15.605Z,15.87
2017-12-30T02:55:43.931Z,14.33
2017-12-30T02:58:12.387Z,13.40
2017-12-30T03:00:40.708Z,17.37
2017-12-30T03:03:09.049Z,15.60
2017-12-30T03:05:37.411Z,16.10
2017-12-30T03:08:05.805Z,14.20
2017-12-30T03:10:34.129Z,18.00
2017-12-30T03:13:02.466Z,17.33
2017-12-30T03:15:31.150Z,17.80
2017-12-30T03:18:00.232Z,19.87
2017-12-30T03:20:28.730Z,16.73
2017-12-30T03:22:57.091Z,15.80
2017-12-30T03:25:25.509Z,20.17
2017-12-30T03:27:54.675Z,16.47
2017-12-30T03:30:23.057Z,16.73
2017-12-30T03:32:51.513Z,18.07
2017-12-30T03:35:19.915Z,17.73
2017-12-30T03:37:48.374Z,16.87
2017-12-30T03:40:17.508Z,17.33
2017-12-30T03:42:45.995Z,16.83
2017-12-30T03:45:14.416Z,17.93
2017-12-30T03:47:42.747Z,16.93
2017-12-30T03:50:11.152Z,13.37
2017-12-30T03:52:39.633Z,13.30
2017-12-30T03:55:07.955Z,15.77
2017-12-30T04:00:11.028Z,19.97
2017-12-30T04:02:39.377Z,14.30
2017-12-30T04:05:07.718Z,14.40
2017-12-30T04:07:36.255Z,15.43
2017-12-30T04:10:04.585Z,13.80
2017-12-30T04:12:32.986Z,16.73
2017-12-30T04:15:01.321Z,15.83
2017-12-30T04:17:29.648Z,13.53
2017-12-30T04:19:58.000Z,13.23
2017-12-30T04:22:26.514Z,13.00
2017-12-30T04:24:54.938Z,13.87
2017-12-30T04:27:23.274Z,14.17
2017-12-30T04:29:51.612Z,21.43
2017-12-30T04:32:20.037Z,11.40
2017-12-30T04:34:48.359Z,14.80
2017-12-30T04:37:17.477Z,14.30
2017-12-30T04:39:45.817Z,13.77
2017-12-30T04:42:14.168Z,16.63
2017-12-30T04:44:42.526Z,16.20
2017-12-30T04:47:10.962Z,14.57
2017-12-30T04:49:40.211Z,17.43
2017-12-30T04:52:08.532Z,14.33
2017-12-30T04:54:36.884Z,11.37
2017-12-30T04:57:05.256Z,15.23
2017-12-30T04:59:33.566Z,13.17
2017-12-30T05:02:01.919Z,13.20
2017-12-30T05:04:30.243Z,14.27
2017-12-30T05:06:59.471Z,9.20
2017-12-30T05:09:27.798Z,11.00
2017-12-30T05:11:56.318Z,11.73
2017-12-30T05:14:24.747Z,16.07
2017-12-30T05:16:53.089Z,13.87
2017-12-30T05:19:21.451Z,11.73
2017-12-30T05:21:49.797Z,10.80
2017-12-30T05:24:18.130Z,11.83
2017-12-30T05:26:46.476Z,17.77
2017-12-30T05:29:15.572Z,13.57
2017-12-30T05:31:44.799Z,14.43
2017-12-30T05:34:13.148Z,12.33
2017-12-30T05:36:42.316Z,13.07
2017-12-30T05:39:10.764Z,13.97
2017-12-30T05:41:39.094Z,14.63
2017-12-30T05:44:07.615Z,12.70
2017-12-30T05:46:35.989Z,13.93
2017-12-30T05:49:04.330Z,9.37
2017-12-30T05:51:32.727Z,12.83
2017-12-30T05:54:01.839Z,14.03
2017-12-30T05:56:30.204Z,13.87
2017-12-30T05:58:58.767Z,13.13
2017-12-30T06:01:27.124Z,15.57
2017-12-30T06:03:55.572Z,14.57
2017-12-30T06:06:23.908Z,14.17
2017-12-30T06:08:53.019Z,13.80
2017-12-30T06:11:22.141Z,11.90
2017-12-30T06:13:50.516Z,16.90
2017-12-30T06:16:18.879Z,16.50
2017-12-30T06:18:47.976Z,12.03
2017-12-30T06:21:16.321Z,14.43
2017-12-30T06:23:44.750Z,13.13
2017-12-30T06:26:13.098Z,11.40
2017-12-30T06:28:42.218Z,14.40
2017-12-30T06:31:10.704Z,18.03
2017-12-30T06:33:39.048Z,17.20
2017-12-30T06:36:08.212Z,13.10
2017-12-30T06:38:36.560Z,17.13
2017-12-30T06:41:04.894Z,14.53
2017-12-30T06:43:33.248Z,11.73
2017-12-30T06:46:01.596Z,15.30
2017-12-30T06:48:29.925Z,19.80
2017-12-30T06:50:58.279Z,12.50
2017-12-30T06:53:26.632Z,15.03
2017-12-30T06:55:55.211Z,15.27
2017-12-30T06:58:23.539Z,12.40
2017-12-30T07:00:51.975Z,14.67
2017-12-30T07:03:20.365Z,18.23
2017-12-30T07:05:48.756Z,17.67
2017-12-30T07:08:17.095Z,13.13
2017-12-30T07:10:45.435Z,10.90
2017-12-30T07:13:13.875Z,12.10
2017-12-30T07:15:42.204Z,13.13
2017-12-30T07:18:10.592Z,11.80
2017-12-30T07:20:38.956Z,13.60
2017-12-30T07:23:07.304Z,7.00
2017-12-30T07:25:35.744Z,16.53
2017-12-30T07:28:04.095Z,11.73
2017-12-30T07:30:32.527Z,9.47
2017-12-30T07:33:01.062Z,8.87
2017-12-30T07:35:29.392Z,10.17
2017-12-30T07:37:57.773Z,13.43
2017-12-30T07:40:26.282Z,9.20
2017-12-30T07:42:55.405Z,15.83
2017-12-30T07:45:23.764Z,12.57
2017-12-30T07:47:52.113Z,9.30
2017-12-30T07:50:20.567Z,9.33
2017-12-30T07:52:49.664Z,6.87
2017-12-30T07:55:18.769Z,7.60
2017-12-30T07:57:47.104Z,8.20
2017-12-30T08:00:15.440Z,12.17
2017-12-30T08:02:43.823Z,14.23
2017-12-30T08:05:12.230Z,9.17
2017-12-30T08:07:40.547Z,11.00
2017-12-30T08:10:09.677Z,10.10
2017-12-30T08:12:38.011Z,14.57
2017-12-30T08:15:06.527Z,13.50
2017-12-30T08:17:34.860Z,10.97
2017-12-30T08:20:03.190Z,8.70
2017-12-30T08:22:31.728Z,13.70
2017-12-30T08:25:00.139Z,10.70
2017-12-30T08:27:28.491Z,7.77
2017-12-30T08:29:56.821Z,12.90
2017-12-30T08:32:25.145Z,8.97
2017-12-30T08:34:54.125Z,13.13
2017-12-30T08:37:22.456Z,11.60
2017-12-30T08:39:50.825Z,7.23
2017-12-30T08:42:19.898Z,9.27
2017-12-30T08:44:49.062Z,12.33
2017-12-30T08:47:18.299Z,10.67
2017-12-30T08:49:46.625Z,15.03
2017-12-30T08:52:14.968Z,8.97
2017-12-30T08:54:43.396Z,7.87
2017-12-30T08:57:11.757Z,11.33
2017-12-30T08:59:40.134Z,12.50
2017-12-30T09:02:08.477Z,11.10
2017-12-30T09:04:37.622Z,15.07
2017-12-30T09:07:06.147Z,9.67
2017-12-30T09:09:34.526Z,11.40
2017-12-30T09:12:02.846Z,8.57
2017-12-30T09:14:31.170Z,10.33
2017-12-30T09:16:59.586Z,10.63
2017-12-30T09:19:27.920Z,14.00
2017-12-30T09:21:56.695Z,10.03
2017-12-30T09:24:25.022Z,14.07
2017-12-30T09:29:28.777Z,14.47
2017-12-30T09:31:57.106Z,16.17
2017-12-30T09:34:26.433Z,13.60
2017-12-30T09:36:55.526Z,14.73
2017-12-30T09:39:23.877Z,13.77
2017-12-30T09:41:52.205Z,11.17
2017-12-30T09:44:20.537Z,15.63
2017-12-30T09:46:49.672Z,15.33
2017-12-30T09:49:18.033Z,14.73
2017-12-30T09:51:46.430Z,10.73
2017-12-30T09:54:14.772Z,13.57
2017-12-30T09:56:43.233Z,10.53
2017-12-30T09:59:11.556Z,11.43
2017-12-30T10:01:39.946Z,10.87
2017-12-30T10:04:08.647Z,13.83
2017-12-30T10:06:36.965Z,11.97
2017-12-30T10:09:05.304Z,17.23
2017-12-30T10:11:33.664Z,7.27
2017-12-30T10:14:02.011Z,7.50
2017-12-30T10:16:30.444Z,10.93
2017-12-30T10:18:58.924Z,10.63
2017-12-30T10:21:27.272Z,16.07
2017-12-30T10:23:56.376Z,13.53
2017-12-30T10:26:24.776Z,12.80
2017-12-30T10:28:53.116Z,6.73
2017-12-30T10:31:22.229Z,9.60
2017-12-30T10:33:50.578Z,9.17
2017-12-30T10:36:19.001Z,7.93
2017-12-30T10:38:47.351Z,13.47
2017-12-30T10:41:16.627Z,9.83
2017-12-30T10:43:44.958Z,7.83
2017-12-30T10:46:13.355Z,6.87
2017-12-30T10:48:41.722Z,6.73
2017-12-30T10:51:10.044Z,8.33
2017-12-30T10:53:38.396Z,7.57
2017-12-30T10:56:06.731Z,9.27
2017-12-30T10:58:35.943Z,10.60
2017-12-30T11:01:04.289Z,9.90
2017-12-30T11:03:32.607Z,7.43
2017-12-30T11:06:00.947Z,7.67
2017-12-30T11:08:30.047Z,5.00
2017-12-30T11:10:59.172Z,6.17
2017-12-30T11:13:27.504Z,6.30
2017-12-30T11:15:55.948Z,5.37
2017-12-30T11:18:24.322Z,5.60
2017-12-30T11:20:52.729Z,5.17
2017-12-30T11:23:21.230Z,4.00
2017-12-30T11:25:49.556Z,5.77
2017-12-30T11:28:17.890Z,3.27
2017-12-30T11:30:46.274Z,4.57
2017-12-30T11:33:14.691Z,4.80
2017-12-30T11:35:43.040Z,2.67
2017-12-30T11:38:12.176Z,3.13
2017-12-30T11:40:40.664Z,2.80
2017-12-30T11:43:09.662Z,2.47
2017-12-30T11:45:38.021Z,2.80
2017-12-30T11:48:06.361Z,2.80
2017-12-30T11:50:34.713Z,1.67
2017-12-30T11:53:03.071Z,1.80
2017-12-30T11:55:31.415Z,2.10
2017-12-30T11:58:00.531Z,3.40
2017-12-30T12:00:28.874Z,2.73
2017-12-30T12:02:57.981Z,2.33
2017-12-30T12:05:27.123Z,2.43
2017-12-30T12:07:55.435Z,1.57
2017-12-30T12:10:23.772Z,2.50
2017-12-30T12:12:52.131Z,3.03
2017-12-30T12:15:20.532Z,3.00
2017-12-30T12:17:48.899Z,1.73
2017-12-30T12:20:17.447Z,1.70
2017-12-30T12:22:45.772Z,2.30
2017-12-30T12:25:14.114Z,1.70
2017-12-30T12:27:43.343Z,4.03
2017-12-30T12:30:11.713Z,2.43
2017-12-30T12:32:40.053Z,2.60
2017-12-30T12:35:08.375Z,1.73
2017-12-30T12:37:36.746Z,1.20
2017-12-30T12:40:05.107Z,1.60
2017-12-30T12:42:33.451Z,2.67
2017-12-30T12:45:01.790Z,2.13
2017-12-30T12:47:30.184Z,1.53
2017-12-30T12:49:58.523Z,2.57
2017-12-30T12:52:27.644Z,1.57
2017-12-30T12:54:56.049Z,1.43
2017-12-30T12:57:24.383Z,2.47
2017-12-30T12:59:52.722Z,2.30
2017-12-30T13:02:21.055Z,1.13
2017-12-30T13:04:49.393Z,2.23
2017-12-30T13:07:17.758Z,1.07
2017-12-30T13:09:46.193Z,1.30
2017-12-30T13:12:14.553Z,1.40
2017-12-30T13:14:42.895Z,2.83
2017-12-30T13:17:11.253Z,2.30
2017-12-30T13:19:39.593Z,1.50
2017-12-30T13:22:07.941Z,1.00
2017-12-30T13:24:36.366Z,1.63
2017-12-30T13:27:04.711Z,2.03
2017-12-30T13:29:33.041Z,1.23
2017-12-30T13:32:01.374Z,2.27
2017-12-30T13:34:30.502Z,1.03
2017-12-30T13:36:58.860Z,1.83
2017-12-30T13:39:27.255Z,1.43
2017-12-30T13:41:55.634Z,1.50
2017-12-30T13:44:23.979Z,2.20
2017-12-30T13:46:53.070Z,2.47
2017-12-30T13:49:21.489Z,1.93
2017-12-30T13:51:49.831Z,1.70
2017-12-30T13:54:18.256Z,1.67
2017-12-30T13:56:46.578Z,1.40
2017-12-30T13:59:14.917Z,1.80
2017-12-30T14:01:43.461Z,2.40
2017-12-30T14:04:12.598Z,2.10
2017-12-30T14:06:40.947Z,1.73
2017-12-30T14:09:09.357Z,2.83
2017-12-30T14:11:37.771Z,3.17
2017-12-30T14:14:06.134Z,1.97
2017-12-30T14:16:34.656Z,2.17
2017-12-30T14:19:03.021Z,4.77
2017-12-30T14:21:31.370Z,4.97
2017-12-30T14:24:00.508Z,4.40
2017-12-30T14:26:28.918Z,5.80
2017-12-30T14:28:57.246Z,7.50
2017-12-30T14:31:25.582Z,8.03
2017-12-30T14:33:54.175Z,7.10
2017-12-30T14:36:22.534Z,6.87
2017-12-30T14:38:51.135Z,7.73
2017-12-30T14:41:19.460Z,6.83
2017-12-30T14:43:47.825Z,10.03
2017-12-30T14:46:16.177Z,6.27
2017-12-30T14:48:44.518Z,11.17
2017-12-30T14:51:12.858Z,9.47
2017-12-30T14:53:41.190Z,11.50
2017-12-30T14:56:09.608Z,10.27
2017-12-30T14:58:37.982Z,12.23
2017-12-30T15:01:06.331Z,13.67
2017-12-30T15:03:34.678Z,12.90
2017-12-30T15:06:03.007Z,16.70
2017-12-30T15:08:31.357Z,24.97
2017-12-30T15:11:00.449Z,19.23
2017-12-30T15:13:28.859Z,21.00
2017-12-30T15:15:57.310Z,24.90
2017-12-30T15:18:26.332Z,35.37
2017-12-30T15:20:54.780Z,36.57
2017-12-30T15:23:23.381Z,38.33
2017-12-30T15:25:51.762Z,42.73
2017-12-30T15:28:20.099Z,54.03
2017-12-30T15:30:49.206Z,56.00
2017-12-30T15:33:18.436Z,59.50
2017-12-30T15:35:47.188Z,56.40
2017-12-30T15:38:15.618Z,68.33
2017-12-30T15:40:43.988Z,71.77
2017-12-30T15:43:12.318Z,67.13
2017-12-30T15:45:42.399Z,74.47
2017-12-30T15:48:10.887Z,64.40
2017-12-30T15:50:39.219Z,60.27
2017-12-30T15:53:07.567Z,40.63
2017-12-30T15:55:35.997Z,54.27
2017-12-30T15:58:04.342Z,46.30
2017-12-30T16:00:33.462Z,57.20
2017-12-30T16:03:01.906Z,37.70
2017-12-30T16:05:30.234Z,41.93
2017-12-30T16:07:58.635Z,32.67
2017-12-30T16:10:27.018Z,31.20
2017-12-30T16:12:55.361Z,33.57
2017-12-30T16:15:23.750Z,35.43
2017-12-30T16:17:52.099Z,35.37
2017-12-30T16:20:21.241Z,33.03
2017-12-30T16:22:49.575Z,29.70
2017-12-30T16:25:18.685Z,29.90
2017-12-30T16:27:47.050Z,33.10
2017-12-30T16:30:16.176Z,29.33
2017-12-30T16:32:44.601Z,34.17
2017-12-30T16:35:14.146Z,37.23
2017-12-30T16:37:42.569Z,31.90
2017-12-30T16:40:11.668Z,32.53
2017-12-30T16:42:41.179Z,28.60
2017-12-30T16:45:09.646Z,35.87
2017-12-30T16:47:38.080Z,31.33
2017-12-30T16:50:07.332Z,29.17
2017-12-30T16:52:35.670Z,30.13
2017-12-30T16:55:04.056Z,36.60
2017-12-30T16:57:32.636Z,35.40
2017-12-30T17:00:01.752Z,40.03
2017-12-30T17:02:30.144Z,30.43
2017-12-30T17:04:58.486Z,35.67
2017-12-30T17:07:26.845Z,26.93
2017-12-30T17:09:55.992Z,100.67
2017-12-30T17:12:24.346Z,25.73
2017-12-30T17:14:52.740Z,32.47
2017-12-30T17:17:21.093Z,32.87
2017-12-30T17:19:50.201Z,27.93
2017-12-30T17:22:18.686Z,33.33
2017-12-30T17:24:47.071Z,28.87
2017-12-30T17:27:15.460Z,30.73
2017-12-30T17:29:43.824Z,37.10
2017-12-30T17:32:12.188Z,32.90
2017-12-30T17:34:40.552Z,39.80
2017-12-30T17:37:09.673Z,31.17
2017-12-30T17:39:38.055Z,39.00
2017-12-30T17:42:06.426Z,40.10
2017-12-30T17:44:34.786Z,32.27
2017-12-30T17:47:03.930Z,24.87
2017-12-30T17:49:32.386Z,29.07
2017-12-30T17:52:00.795Z,27.17
2017-12-30T17:54:29.168Z,25.10
2017-12-30T17:56:57.652Z,32.03
2017-12-30T17:59:25.982Z,34.53
2017-12-30T18:01:55.099Z,24.30
2017-12-30T18:04:23.487Z,33.37
2017-12-30T18:06:51.878Z,19.57
2017-12-30T18:09:20.346Z,30.20
2017-12-30T18:11:48.682Z,21.30
2017-12-30T18:14:17.135Z,22.43
2017-12-30T18:16:46.096Z,25.83
2017-12-30T18:19:14.438Z,21.93
2017-12-30T18:21:42.824Z,19.90
2017-12-30T18:24:11.942Z,16.30
2017-12-30T18:26:41.059Z,20.10
2017-12-30T18:29:09.384Z,16.70
2017-12-30T18:31:37.812Z,17.47
2017-12-30T18:34:06.202Z,11.97
2017-12-30T18:36:34.550Z,16.10
2017-12-30T18:39:03.706Z,12.97
2017-12-30T18:41:32.770Z,15.67
2017-12-30T18:44:01.139Z,18.60
2017-12-30T18:46:29.491Z,20.40
2017-12-30T18:48:58.605Z,14.77
2017-12-30T18:51:27.732Z,20.73
2017-12-30T18:53:56.152Z,23.13
2017-12-30T18:56:24.540Z,26.57
2017-12-30T18:58:52.976Z,29.27
2017-12-30T19:01:21.298Z,33.13
2017-12-30T19:03:50.451Z,34.40
2017-12-30T19:06:19.668Z,26.90
2017-12-30T19:08:48.517Z,33.40
2017-12-30T19:11:17.249Z,23.70
2017-12-30T19:13:45.965Z,30.63
2017-12-30T19:16:15.216Z,44.53
2017-12-30T19:18:43.547Z,30.03
2017-12-30T19:21:12.652Z,33.30
2017-12-30T19:23:41.768Z,41.00
2017-12-30T19:26:10.105Z,39.57
2017-12-30T19:28:38.544Z,38.33
2017-12-30T19:31:06.987Z,39.93
2017-12-30T19:33:36.083Z,35.20
2017-12-30T19:36:05.201Z,41.83
2017-12-30T19:38:33.646Z,37.67
2017-12-30T19:41:02.060Z,32.47
2017-12-30T19:43:31.236Z,31.97
2017-12-30T19:46:00.669Z,29.37
2017-12-30T19:48:29.048Z,30.23
2017-12-30T19:50:57.895Z,34.63
2017-12-30T19:53:27.012Z,29.77
2017-12-30T19:55:55.362Z,30.03
2017-12-30T19:58:23.753Z,29.47
2017-12-30T20:00:52.183Z,24.83
2017-12-30T20:03:20.622Z,33.80
2017-12-30T20:05:49.741Z,26.43
2017-12-30T20:08:18.087Z,32.83
2017-12-30T20:10:47.255Z,31.13
2017-12-30T20:13:15.643Z,37.07
2017-12-30T20:15:44.025Z,25.10
2017-12-30T20:18:13.246Z,32.07
2017-12-30T20:20:42.000Z,35.60
2017-12-30T20:23:10.363Z,34.77
2017-12-30T20:25:38.723Z,26.60
2017-12-30T20:28:07.858Z,35.17
2017-12-30T20:30:36.860Z,28.17
2017-12-30T20:33:05.245Z,24.60
2017-12-30T20:35:34.364Z,30.83
2017-12-30T20:38:02.880Z,24.57
2017-12-30T20:40:31.256Z,36.33
2017-12-30T20:42:59.740Z,31.00
2017-12-30T20:45:29.082Z,24.43
2017-12-30T20:47:57.680Z,32.87
2017-12-30T20:50:26.116Z,26.20
2017-12-30T20:52:54.525Z,30.37
2017-12-30T20:55:22.853Z,29.23
2017-12-30T20:57:51.253Z,28.63
2017-12-30T21:00:19.841Z,25.90
2017-12-30T21:02:48.366Z,29.40
2017-12-30T21:05:17.088Z,30.47
2017-12-30T21:07:45.646Z,21.20
2017-12-30T21:10:14.809Z,23.50
2017-12-30T21:12:43.758Z,25.07
2017-12-30T21:15:12.201Z,17.80
2017-12-30T21:17:40.852Z,22.63
2017-12-30T21:20:09.541Z,24.73
2017-12-30T21:22:38.174Z,18.43
2017-12-30T21:25:06.947Z,21.90
2017-12-30T21:27:35.694Z,23.33
2017-12-30T21:30:04.404Z,24.50
2017-12-30T21:32:33.138Z,26.33
2017-12-30T21:35:01.516Z,22.80
2017-12-30T21:37:31.514Z,24.00
2017-12-30T21:40:00.569Z,24.90
2017-12-30T21:42:29.524Z,21.87
2017-12-30T21:44:59.554Z,19.63
2017-12-30T21:47:28.932Z,17.83
2017-12-30T21:49:58.062Z,13.43
2017-12-30T21:52:26.407Z,13.60
2017-12-30T21:54:55.536Z,18.00
2017-12-30T21:57:23.876Z,17.87
2017-12-30T21:59:53.134Z,12.40
2017-12-30T22:02:21.456Z,16.67
2017-12-30T22:04:49.798Z,15.57
2017-12-30T22:07:18.163Z,16.27
2017-12-30T22:09:46.524Z,17.80
2017-12-30T22:12:14.961Z,16.00
2017-12-30T22:14:43.770Z,14.67
2017-12-30T22:17:13.091Z,19.17
2017-12-30T22:19:41.442Z,24.73
2017-12-30T22:22:09.853Z,22.57
2017-12-30T22:24:38.382Z,27.80
2017-12-30T22:27:06.829Z,29.83
2017-12-30T22:29:35.193Z,24.07
2017-12-30T22:32:03.564Z,22.70
2017-12-30T22:34:31.900Z,30.30
2017-12-30T22:37:01.135Z,21.50
2017-12-30T22:39:30.237Z,28.50
2017-12-30T22:41:59.362Z,28.13
2017-12-30T22:44:27.787Z,33.27
2017-12-30T22:46:56.145Z,36.13
2017-12-30T22:49:24.530Z,33.77
2017-12-30T22:51:52.858Z,32.43
2017-12-30T22:54:21.672Z,31.20
2017-12-30T22:56:50.861Z,30.30
2017-12-30T22:59:19.211Z,31.23
2017-12-30T23:01:48.312Z,26.77
2017-12-30T23:04:16.649Z,25.17
2017-12-30T23:06:45.056Z,25.83
2017-12-30T23:09:13.394Z,30.30
2017-12-30T23:11:41.709Z,26.90
2017-12-30T23:14:10.833Z,21.97
2017-12-30T23:16:39.236Z,30.17
2017-12-30T23:19:07.584Z,26.67
2017-12-30T23:21:35.929Z,26.77
2017-12-30T23:24:04.358Z,24.83
2017-12-30T23:26:32.691Z,28.33
2017-12-30T23:29:01.032Z,27.53
2017-12-30T23:31:29.378Z,27.47
2017-12-30T23:33:57.846Z,31.87
2017-12-30T23:36:27.086Z,29.23
2017-12-30T23:38:55.581Z,34.87
2017-12-30T23:41:23.916Z,27.53
2017-12-30T23:43:52.256Z,28.50
2017-12-30T23:46:20.769Z,30.57
2017-12-30T23:48:49.186Z,29.23
2017-12-30T23:51:17.890Z,27.73
2017-12-30T23:53:46.235Z,28.50
2017-12-30T23:56:14.636Z,25.60
2017-12-30T23:58:42.999Z,26.23
